aviador You're here:

KPAM Decoded Metar

PANAMA CITY in FL, USA
Report Time2018-05-20 23:08:00
UTC Time2018-05-20 23:22:43
Flight Rules vfr VFR
Wind220° at 03 kt
W.Decomp.*RWY 31: 0.1 kt HW 3 kt LCW
W.Rank220° ranks 20
Current wind is below 220° avg. (7.5)
Visibility9999 m
Phenomena:Light Thuderstorm Rain
Clouds:Few 024 Hf
Expected CloudBase > 400 ft AGL from Temp-Dew spread
CeilingNone
Temp22°C (ISA +7)
Dew Point21°C (94% RH)
QNH1017 hPa
Density Alt1,027 ft
Elevation16 ft
Report Wrong Elevation
Raw Report
SPECI KPAM 202308Z 22003KT 10SM -TSRA FEW024 22/21 A3003 RMK AO2A RAB2259
SLP172 $=

Extra information for KPAM:More info

Metar Taf Metar & Taf Last 4 Metars F.Rules Stats Wind Profile Meteogram Temp Stats Airport Information Weather charts Add Link Nearby VenuesMetar ALERT Operation Metar Decoded Social comments

AIRNAV info for KPAM